Time;durP1;ratioP1;P1;durP2;ratioP2;P2;SDS_P1;SDS_P2;PMS_P1;PMS_P2;Temp;Humidity;BMP_temperature;BMP_pressure;BME280_temperature;BME280_humidity;BME280_pressure;Samples;Min_cycle;Max_cycle;Signal;HPM_P1;HPM_P2
2021/01/11 00:01:47;;;;;;;;;;;;;;;-1.38;100.00;101319.84;5113997;28;19928;-70
2021/01/11 00:04:13;;;;;;;;;;;;;;;-1.34;100.00;101325.94;5113664;28;19950;-70
2021/01/11 00:06:39;;;;;;;;;;;;;;;-1.34;100.00;101323.28;5113677;28;19968;-71
2021/01/11 00:09:05;;;;;;;;;;;;;;;-1.31;100.00;101317.91;5113876;28;20022;-71
2021/01/11 00:11:34;;;;;;;;;;;;;;;-1.29;100.00;101313.41;5113562;28;19971;-71
2021/01/11 00:14:00;;;;;;;;;;;;;;;-1.28;100.00;101296.50;5113849;28;19990;-70
2021/01/11 00:16:26;;;;;;;;;;;;;;;-1.28;100.00;101279.63;5113425;28;19923;-70
2021/01/11 00:18:52;;;;;;;;;;;;;;;-1.31;100.00;101280.63;5113655;28;20405;-70
2021/01/11 00:21:18;;;;;;;;;;;;;;;-1.32;100.00;101297.50;5113507;28;19924;-70
2021/01/11 00:23:43;;;;;;;;;;;;;;;-1.31;100.00;101299.25;5113133;28;19923;-70
2021/01/11 00:26:10;;;;;;;;;;;;;;;-1.30;100.00;101290.34;5113131;28;19951;-70
2021/01/11 00:28:38;;;;;;;;;;;;;;;-1.31;100.00;101301.91;5113565;28;19931;-70
2021/01/11 00:31:04;;;;;;;;;;;;;;;-1.30;100.00;101306.31;5113455;28;20393;-71
2021/01/11 00:33:30;;;;;;;;;;;;;;;-1.25;100.00;101293.78;5113319;28;19935;-70
2021/01/11 00:35:55;;;;;;;;;;;;;;;-1.20;100.00;101304.34;5113056;28;20411;-70
2021/01/11 00:38:21;;;;;;;;;;;;;;;-1.16;100.00;101307.78;5113034;28;19923;-71
2021/01/11 00:40:47;;;;;;;;;;;;;;;-1.12;100.00;101299.69;5113162;28;19923;-70
2021/01/11 00:43:13;;;;;;;;;;;;;;;-1.08;100.00;101303.16;5113099;28;19927;-70
2021/01/11 00:45:40;;;;;;;;;;;;;;;-1.06;100.00;101304.88;5113145;28;19924;-70
2021/01/11 00:48:06;;;;;;;;;;;;;;;-1.02;100.00;101301.25;5113019;28;19924;-70
2021/01/11 00:50:33;;;;;;;;;;;;;;;-1.00;100.00;101306.53;5111265;28;21580;-69
2021/01/11 00:52:59;;;;;;;;;;;;;;;-0.98;100.00;101302.03;5103859;28;19928;-70
2021/01/11 00:55:25;;;;;;;;;;;;;;;-0.96;100.00;101304.66;5111545;28;19993;-70
2021/01/11 00:57:58;;;;;;;;;;;;;;;-0.95;100.00;101306.41;5111387;28;20377;-70
2021/01/11 01:00:28;;;;;;;;;;;;;;;-0.91;100.00;101303.66;5111658;28;20015;-70
2021/01/11 01:03:08;;;;;;;;;;;;;;;-0.89;100.00;101304.47;5111502;28;19924;-71
2021/01/11 01:05:33;;;;;;;;;;;;;;;-0.88;100.00;101297.38;5112622;28;20030;-70
2021/01/11 01:08:01;;;;;;;;;;;;;;;-0.84;100.00;101291.03;5112717;28;19931;-70
2021/01/11 01:10:26;;;;;;;;;;;;;;;-0.82;100.00;101288.34;5112522;28;19970;-70
2021/01/11 01:12:52;;;;;;;;;;;;;;;-0.81;100.00;101282.09;5112578;28;19958;-70
2021/01/11 01:15:18;;;;;;;;;;;;;;;-0.80;100.00;101290.06;5112151;28;20318;-70
2021/01/11 01:17:44;;;;;;;;;;;;;;;-0.81;100.00;101277.63;5094192;28;19936;-70
2021/01/11 01:20:15;;;;;;;;;;;;;;;-0.78;100.00;101282.88;5112521;28;19931;-69
2021/01/11 01:22:42;;;;;;;;;;;;;;;-0.76;100.00;101291.72;5112569;28;19924;-70
2021/01/11 01:25:09;;;;;;;;;;;;;;;-0.74;100.00;101286.34;5112455;28;19924;-70
2021/01/11 01:27:34;;;;;;;;;;;;;;;-0.73;100.00;101296.97;5112296;28;20423;-71
2021/01/11 01:30:00;;;;;;;;;;;;;;;-0.71;100.00;101297.81;5112542;28;19923;-70
2021/01/11 01:32:26;;;;;;;;;;;;;;;-0.71;100.00;101294.25;5110874;28;19923;-70
2021/01/11 01:34:52;;;;;;;;;;;;;;;-0.72;100.00;101296.06;5112340;28;19928;-71
2021/01/11 01:37:18;;;;;;;;;;;;;;;-0.75;100.00;101287.25;5111919;28;19924;-70
2021/01/11 01:39:44;;;;;;;;;;;;;;;-0.71;100.00;101288.94;5112252;28;19928;-70
2021/01/11 01:42:10;;;;;;;;;;;;;;;-0.70;100.00;101285.34;5112067;28;19969;-70
2021/01/11 01:44:36;;;;;;;;;;;;;;;-0.71;100.00;101286.25;5112131;28;19931;-70
2021/01/11 01:47:01;;;;;;;;;;;;;;;-0.69;100.00;101279.13;5111881;28;19931;-70
2021/01/11 01:49:27;;;;;;;;;;;;;;;-0.68;100.00;101279.06;5110633;28;19928;-70
2021/01/11 01:51:53;;;;;;;;;;;;;;;-0.67;100.00;101279.94;5112152;28;20155;-70
2021/01/11 01:54:20;;;;;;;;;;;;;;;-0.66;100.00;101272.81;5112015;28;19936;-70
2021/01/11 01:56:46;;;;;;;;;;;;;;;-0.66;100.00;101267.50;5111859;28;20381;-70
2021/01/11 01:59:13;;;;;;;;;;;;;;;-0.67;100.00;101261.25;5110805;28;20023;-70
2021/01/11 02:01:39;;;;;;;;;;;;;;;-0.68;100.00;101268.41;5111995;28;20022;-71
2021/01/11 02:04:05;;;;;;;;;;;;;;;-0.65;100.00;101266.59;5113921;28;20080;-71
2021/01/11 02:06:34;;;;;;;;;;;;;;;-0.66;100.00;101260.34;5115814;28;20388;-70
2021/01/11 02:09:02;;;;;;;;;;;;;;;-0.66;100.00;101265.69;5115763;28;20010;-70
2021/01/11 02:11:30;;;;;;;;;;;;;;;-0.66;100.00;101264.81;5116160;28;20008;-70
2021/01/11 02:14:02;;;;;;;;;;;;;;;-0.66;100.00;101263.03;5116272;28;19962;-70
2021/01/11 02:16:33;;;;;;;;;;;;;;;-0.66;100.00;101260.34;5115870;28;20295;-70
2021/01/11 02:19:06;;;;;;;;;;;;;;;-0.66;100.00;101268.34;5116001;28;19930;-70
2021/01/11 02:21:50;;;;;;;;;;;;;;;-0.66;100.00;101262.16;5115929;28;20014;-70
2021/01/11 02:24:33;;;;;;;;;;;;;;;-0.68;100.00;101262.22;5114556;28;20452;-70
2021/01/11 02:27:19;;;;;;;;;;;;;;;-0.68;100.00;101254.22;5115357;28;19924;-70
2021/01/11 02:29:59;;;;;;;;;;;;;;;-0.70;100.00;101253.34;5115947;28;20014;-69
2021/01/11 02:32:27;;;;;;;;;;;;;;;-0.75;100.00;101250.81;5115680;28;20396;-69
2021/01/11 02:34:54;;;;;;;;;;;;;;;-0.77;100.00;101252.63;5114546;28;19934;-69
2021/01/11 02:37:19;;;;;;;;;;;;;;;-0.77;100.00;101249.09;5114123;28;19924;-69
2021/01/11 02:39:46;;;;;;;;;;;;;;;-0.78;100.00;101247.34;5115569;28;19924;-69
2021/01/11 02:42:11;;;;;;;;;;;;;;;-0.79;100.00;101249.13;5114384;28;19924;-69
2021/01/11 02:44:37;;;;;;;;;;;;;;;-0.79;100.00;101249.13;5115555;28;20274;-69
2021/01/11 02:47:04;;;;;;;;;;;;;;;-0.81;100.00;101245.63;5115073;28;19934;-70
2021/01/11 02:49:32;;;;;;;;;;;;;;;-0.83;100.00;101247.44;5115485;28;19965;-70
2021/01/11 02:52:02;;;;;;;;;;;;;;;-0.87;100.00;101246.69;5115262;28;20440;-70
2021/01/11 02:54:32;;;;;;;;;;;;;;;-0.84;100.00;101243.06;5115417;28;20353;-70
2021/01/11 02:57:01;;;;;;;;;;;;;;;-0.86;100.00;101248.41;5115019;28;19924;-70
2021/01/11 02:59:29;;;;;;;;;;;;;;;-0.85;100.00;101244.81;5113936;28;20378;-70
2021/01/11 03:01:57;;;;;;;;;;;;;;;-0.84;100.00;101240.41;5115205;28;19965;-70
2021/01/11 03:04:24;;;;;;;;;;;;;;;-0.86;100.00;101248.41;5115035;28;19994;-70
2021/01/11 03:06:54;;;;;;;;;;;;;;;-0.88;100.00;101236.91;5113527;28;20077;-70
2021/01/11 03:09:20;;;;;;;;;;;;;;;-0.91;100.00;101249.44;5115042;28;19927;-70
2021/01/11 03:11:45;;;;;;;;;;;;;;;-0.96;100.00;101246.00;5114944;28;19924;-70
2021/01/11 03:14:11;;;;;;;;;;;;;;;-1.01;100.00;101247.00;5114982;28;19974;-71
2021/01/11 03:16:37;;;;;;;;;;;;;;;-1.05;100.00;101248.00;5113704;28;20325;-70
2021/01/11 03:19:03;;;;;;;;;;;;;;;-1.05;100.00;101247.13;5114875;28;19931;-70
2021/01/11 03:21:32;;;;;;;;;;;;;;;-1.09;100.00;101250.78;5114712;28;19924;-70
2021/01/11 03:23:58;;;;;;;;;;;;;;;-1.12;100.00;101246.41;5114594;28;19952;-70
2021/01/11 03:26:24;;;;;;;;;;;;;;;-1.15;100.00;101240.25;5114543;28;19923;-70
2021/01/11 03:28:50;;;;;;;;;;;;;;;-1.14;100.00;101247.34;5113475;28;19924;-69
2021/01/11 03:31:16;;;;;;;;;;;;;;;-1.13;100.00;101246.44;5114690;28;19969;-70
2021/01/11 03:33:42;;;;;;;;;;;;;;;-1.14;100.00;101244.69;5114673;28;19930;-70
2021/01/11 03:36:07;;;;;;;;;;;;;;;-1.13;100.00;101241.13;5114221;28;20385;-70
2021/01/11 03:38:34;;;;;;;;;;;;;;;-1.13;100.00;101241.97;5114786;28;19953;-70
2021/01/11 03:41:00;;;;;;;;;;;;;;;-1.12;100.00;101234.84;5115066;28;19970;-69
2021/01/11 03:43:26;;;;;;;;;;;;;;;-1.13;100.00;101249.13;5114557;28;19924;-70
2021/01/11 03:45:52;;;;;;;;;;;;;;;-1.12;100.00;101242.84;5114709;28;19924;-69
2021/01/11 03:48:19;;;;;;;;;;;;;;;-1.10;100.00;101243.69;5114926;28;19923;-70
2021/01/11 03:50:45;;;;;;;;;;;;;;;-1.11;100.00;101231.28;5114452;28;19949;-70
2021/01/11 03:53:10;;;;;;;;;;;;;;;-1.11;100.00;101231.28;5114531;28;19924;-69
2021/01/11 03:55:39;;;;;;;;;;;;;;;-1.13;100.00;101225.13;5114124;28;19935;-69
2021/01/11 03:58:05;;;;;;;;;;;;;;;-1.12;100.00;101235.75;5114475;28;20442;-70
2021/01/11 04:00:31;;;;;;;;;;;;;;;-1.11;100.00;101228.63;5114391;28;19924;-70
2021/01/11 04:02:57;;;;;;;;;;;;;;;-1.13;100.00;101238.44;5114278;28;19978;-70
2021/01/11 04:05:25;;;;;;;;;;;;;;;-1.13;100.00;101230.47;5112826;28;19935;-70
2021/01/11 04:07:50;;;;;;;;;;;;;;;-1.15;100.00;101234.94;5113715;28;19923;-70
2021/01/11 04:10:16;;;;;;;;;;;;;;;-1.14;100.00;101228.69;5113886;28;19924;-70
2021/01/11 04:12:43;;;;;;;;;;;;;;;-1.13;100.00;101235.78;5113999;28;20409;-70
2021/01/11 04:15:09;;;;;;;;;;;;;;;-1.11;100.00;101234.84;5113857;28;19924;-69
2021/01/11 04:17:35;;;;;;;;;;;;;;;-1.12;100.00;101218.88;5112316;28;20448;-70
2021/01/11 04:20:01;;;;;;;;;;;;;;;-1.11;100.00;101229.50;5113799;28;19924;-70
2021/01/11 04:22:27;;;;;;;;;;;;;;;-1.12;100.00;101225.09;5113824;28;19930;-70
2021/01/11 04:24:53;;;;;;;;;;;;;;;-1.13;100.00;101220.66;5112520;28;19950;-70
2021/01/11 04:27:19;;;;;;;;;;;;;;;-1.11;100.00;101220.63;5113526;28;20335;-70
2021/01/11 04:29:45;;;;;;;;;;;;;;;-1.11;100.00;101221.53;5113512;28;19965;-70
2021/01/11 04:32:11;;;;;;;;;;;;;;;-1.10;100.00;101223.25;5113436;28;19967;-70
2021/01/11 04:34:37;;;;;;;;;;;;;;;-1.08;100.00;101216.09;5113300;28;19931;-70
2021/01/11 04:37:02;;;;;;;;;;;;;;;-1.09;100.00;101213.47;5112922;28;19923;-70
2021/01/11 04:39:28;;;;;;;;;;;;;;;-1.05;100.00;101215.16;5113031;28;19924;-70
2021/01/11 04:41:54;;;;;;;;;;;;;;;-1.06;100.00;101216.91;5113120;28;19933;-70
2021/01/11 04:44:21;;;;;;;;;;;;;;;-1.03;100.00;101205.31;5113192;28;20014;-71
2021/01/11 04:46:48;;;;;;;;;;;;;;;-1.02;100.00;101207.06;5113003;28;19947;-70
2021/01/11 04:49:14;;;;;;;;;;;;;;;-1.02;100.00;101204.41;5113001;28;19928;-70
2021/01/11 04:51:40;;;;;;;;;;;;;;;-1.02;100.00;101210.63;5112963;28;19924;-70
2021/01/11 04:54:07;;;;;;;;;;;;;;;-1.01;100.00;101204.34;5112762;28;20293;-70
2021/01/11 04:56:38;;;;;;;;;;;;;;;-1.02;100.00;101199.97;5112755;28;20022;-70
2021/01/11 04:59:06;;;;;;;;;;;;;;;-1.00;100.00;101194.59;5112896;28;20399;-70
2021/01/11 05:01:32;;;;;;;;;;;;;;;-0.96;100.00;101198.03;5111652;28;19963;-70
2021/01/11 05:04:00;;;;;;;;;;;;;;;-0.96;100.00;101198.94;5111489;28;19923;-70
2021/01/11 05:06:25;;;;;;;;;;;;;;;-0.94;100.00;101194.41;5111187;28;19924;-70
2021/01/11 05:08:51;;;;;;;;;;;;;;;-0.92;100.00;101195.28;5112637;28;19923;-70
2021/01/11 05:11:17;;;;;;;;;;;;;;;-0.90;100.00;101192.56;5111121;28;19927;-70
2021/01/11 05:13:43;;;;;;;;;;;;;;;-0.88;100.00;101204.06;5112672;28;19994;-70
2021/01/11 05:16:10;;;;;;;;;;;;;;;-0.86;100.00;101194.22;5112341;28;20396;-70
2021/01/11 05:18:35;;;;;;;;;;;;;;;-0.86;100.00;101186.22;5112614;28;19955;-70
2021/01/11 05:21:02;;;;;;;;;;;;;;;-0.83;100.00;101193.28;5112421;28;19924;-70
2021/01/11 05:23:34;;;;;;;;;;;;;;;-0.81;100.00;101188.78;5111232;28;19974;-70
2021/01/11 05:25:59;;;;;;;;;;;;;;;-0.81;100.00;101181.66;5112192;28;20488;-70
2021/01/11 05:28:25;;;;;;;;;;;;;;;-0.78;100.00;101183.38;5112225;28;19923;-70
2021/01/11 05:30:51;;;;;;;;;;;;;;;-0.78;100.00;101181.56;5112064;28;19946;-71
2021/01/11 05:33:17;;;;;;;;;;;;;;;-0.76;100.00;101178.84;5111015;28;19977;-70
2021/01/11 05:35:43;;;;;;;;;;;;;;;-0.74;100.00;101177.03;5112196;28;19928;-70
2021/01/11 05:38:20;;;;;;;;;;;;;;;-0.74;100.00;101172.56;5111809;28;19924;-70
2021/01/11 05:40:46;;;;;;;;;;;;;;;-0.72;100.00;101176.06;5111081;28;19928;-70
2021/01/11 05:43:17;;;;;;;;;;;;;;;-0.74;100.00;101177.91;5112169;28;19923;-71
2021/01/11 05:45:43;;;;;;;;;;;;;;;-0.71;100.00;101174.28;5111984;28;19955;-70
2021/01/11 05:48:10;;;;;;;;;;;;;;;-0.70;100.00;101178.69;5109562;28;20461;-70
2021/01/11 05:50:37;;;;;;;;;;;;;;;-0.70;100.00;101181.34;5103080;28;19959;-70
2021/01/11 05:53:03;;;;;;;;;;;;;;;-0.67;100.00;101175.94;5108109;28;19945;-70
2021/01/11 05:55:31;;;;;;;;;;;;;;;-0.66;100.00;101171.50;5098202;28;20286;-71
2021/01/11 05:57:58;;;;;;;;;;;;;;;-0.65;100.00;101170.59;5091572;28;19927;-70
2021/01/11 06:00:24;;;;;;;;;;;;;;;-0.64;100.00;101173.22;5091613;28;19967;-70
2021/01/11 06:02:50;;;;;;;;;;;;;;;-0.64;100.00;101177.66;5100644;28;19924;-70
2021/01/11 06:05:17;;;;;;;;;;;;;;;-0.65;100.00;101168.78;5111803;28;19924;-70
2021/01/11 06:07:43;;;;;;;;;;;;;;;-0.66;100.00;101172.34;5098687;28;20011;-70
2021/01/11 06:10:10;;;;;;;;;;;;;;;-0.67;100.00;101170.59;5110703;28;19963;-70
2021/01/11 06:12:37;;;;;;;;;;;;;;;-0.67;100.00;101170.59;5101934;28;20011;-70
2021/01/11 06:15:03;;;;;;;;;;;;;;;-0.66;100.00;101164.34;5106566;28;20358;-70
2021/01/11 06:17:30;;;;;;;;;;;;;;;-0.66;100.00;101169.69;5111484;28;19967;-70
2021/01/11 06:19:56;;;;;;;;;;;;;;;-0.67;100.00;101170.59;5111133;28;19962;-70
2021/01/11 06:22:45;;;;;;;;;;;;;;;-0.68;100.00;101171.53;5111630;28;19928;-70
2021/01/11 06:25:26;;;;;;;;;;;;;;;-0.67;100.00;101170.59;5107267;28;19976;-70
2021/01/11 06:27:53;;;;;;;;;;;;;;;-0.68;100.00;101169.75;5096942;28;19924;-70
2021/01/11 06:30:32;;;;;;;;;;;;;;;-0.66;100.00;101171.50;5106588;28;20283;-70
2021/01/11 06:32:59;;;;;;;;;;;;;;;-0.68;100.00;101163.53;5098453;28;19970;-70
2021/01/11 06:35:28;;;;;;;;;;;;;;;-0.66;100.00;101171.50;5097373;28;19967;-67
2021/01/11 06:38:05;;;;;;;;;;;;;;;-0.64;100.00;101175.88;5097971;28;20416;-67
2021/01/11 06:40:31;;;;;;;;;;;;;;;-0.65;100.00;101171.44;5090942;28;20294;-67
2021/01/11 06:42:58;;;;;;;;;;;;;;;-0.63;100.00;101174.06;5090552;28;19932;-67
2021/01/11 06:45:33;;;;;;;;;;;;;;;-0.63;100.00;101158.06;5091026;28;19955;-67
2021/01/11 06:48:02;;;;;;;;;;;;;;;-0.63;100.00;101166.06;5090941;28;19960;-68
2021/01/11 06:50:29;;;;;;;;;;;;;;;-0.64;100.00;101156.31;5091514;28;19935;-67
2021/01/11 06:52:58;;;;;;;;;;;;;;;-0.62;100.00;101143.81;5094743;28;19958;-68
2021/01/11 06:55:25;;;;;;;;;;;;;;;-0.63;100.00;101156.25;5094447;28;19924;-67
2021/01/11 06:57:54;;;;;;;;;;;;;;;-0.62;100.00;101159.81;5093108;28;19947;-67
2021/01/11 07:00:28;;;;;;;;;;;;;;;-0.61;100.00;101145.59;5093877;28;20014;-67
2021/01/11 07:02:54;;;;;;;;;;;;;;;-0.61;100.00;101151.78;5094188;28;19963;-67
2021/01/11 07:05:39;;;;;;;;;;;;;;;-0.61;100.00;101154.44;5094560;28;20019;-67
2021/01/11 07:08:05;;;;;;;;;;;;;;;-0.60;100.00;101157.97;5094050;28;19992;-68
2021/01/11 07:10:31;;;;;;;;;;;;;;;-0.59;100.00;101155.28;5094313;28;19951;-67
2021/01/11 07:13:12;;;;;;;;;;;;;;;-0.59;100.00;101162.41;5094333;28;19978;-67
2021/01/11 07:15:38;;;;;;;;;;;;;;;-0.60;100.00;101161.53;5093416;28;20435;-68
2021/01/11 07:18:05;;;;;;;;;;;;;;;-0.59;100.00;101160.63;5094076;28;19928;-67
2021/01/11 07:20:39;;;;;;;;;;;;;;;-0.61;100.00;101159.78;5093761;28;19924;-67
2021/01/11 07:23:04;;;;;;;;;;;;;;;-0.64;100.00;101156.31;5093493;28;19971;-68
2021/01/11 07:25:30;;;;;;;;;;;;;;;-0.67;100.00;101149.28;5094149;28;19924;-68
2021/01/11 07:27:57;;;;;;;;;;;;;;;-0.68;100.00;101143.06;5093688;28;19924;-68
2021/01/11 07:30:23;;;;;;;;;;;;;;;-0.66;100.00;101151.03;5093979;28;19932;-68
2021/01/11 07:32:50;;;;;;;;;;;;;;;-0.70;100.00;101152.91;5095159;28;19924;-68
2021/01/11 07:35:16;;;;;;;;;;;;;;;-0.69;100.00;101153.78;5093802;28;19924;-68
2021/01/11 07:37:42;;;;;;;;;;;;;;;-0.70;100.00;101147.56;5094790;28;19959;-68
2021/01/11 07:40:08;;;;;;;;;;;;;;;-0.67;100.00;101146.59;5095938;28;19927;-68
2021/01/11 07:42:34;;;;;;;;;;;;;;;-0.66;100.00;101153.69;5101146;28;20074;-68
2021/01/11 07:45:07;;;;;;;;;;;;;;;-0.68;100.00;101151.06;5101780;28;19931;-67
2021/01/11 07:47:35;;;;;;;;;;;;;;;-0.66;100.00;101144.84;5101909;28;19924;-67
2021/01/11 07:50:02;;;;;;;;;;;;;;;-0.66;100.00;101131.50;5106260;28;19924;-67
2021/01/11 07:52:29;;;;;;;;;;;;;;;-0.65;100.00;101128.78;5113312;28;20007;-67
2021/01/11 07:54:56;;;;;;;;;;;;;;;-0.63;100.00;101136.72;5113820;28;19949;-67
2021/01/11 07:57:25;;;;;;;;;;;;;;;-0.60;100.00;101132.19;5113510;28;20327;-66
2021/01/11 07:59:58;;;;;;;;;;;;;;;-0.62;100.00;101131.34;5105937;28;19924;-69
2021/01/11 08:02:24;;;;;;;;;;;;;;;-0.61;100.00;101135.78;5095454;28;19931;-66
2021/01/11 08:04:50;;;;;;;;;;;;;;;-0.61;100.00;101129.56;5099203;28;20019;-66
2021/01/11 08:07:23;;;;;;;;;;;;;;;-0.61;100.00;101140.25;5103466;28;20434;-66
2021/01/11 08:09:51;;;;;;;;;;;;;;;-0.64;100.00;101135.88;5112252;28;19966;-68
2021/01/11 08:12:17;;;;;;;;;;;;;;;-0.67;100.00;101146.59;5112704;28;20018;-66
2021/01/11 08:14:43;;;;;;;;;;;;;;;-0.67;100.00;101146.59;5097664;28;19947;-68
2021/01/11 08:17:12;;;;;;;;;;;;;;;-0.62;100.00;101141.16;5105081;28;19955;-68
2021/01/11 08:19:40;;;;;;;;;;;;;;;-0.65;100.00;101150.13;5103113;28;19923;-66
2021/01/11 08:22:07;;;;;;;;;;;;;;;-0.63;100.00;101137.59;5112420;28;19928;-66
2021/01/11 08:24:34;;;;;;;;;;;;;;;-0.63;100.00;101148.25;5111581;28;19924;-65
2021/01/11 08:27:02;;;;;;;;;;;;;;;-0.64;100.00;101135.88;5108101;28;20023;-66
2021/01/11 08:29:30;;;;;;;;;;;;;;;-0.63;100.00;101147.41;5103920;28;20018;-66
2021/01/11 08:31:56;;;;;;;;;;;;;;;-0.63;100.00;101148.25;5092738;28;20034;-68
2021/01/11 08:34:22;;;;;;;;;;;;;;;-0.61;100.00;101140.25;5104182;28;19939;-68
2021/01/11 08:36:47;;;;;;;;;;;;;;;-0.62;100.00;101139.34;5107633;28;19924;-65
2021/01/11 08:39:14;;;;;;;;;;;;;;;-0.58;100.00;101129.47;5095069;28;20002;-68
2021/01/11 08:41:42;;;;;;;;;;;;;;;-0.59;100.00;101130.41;5100621;28;19934;-68
2021/01/11 08:44:22;;;;;;;;;;;;;;;-0.59;100.00;101139.28;5096820;28;19993;-67
2021/01/11 08:46:52;;;;;;;;;;;;;;;-0.57;100.00;101136.56;5112418;28;20420;-67
2021/01/11 08:49:18;;;;;;;;;;;;;;;-0.56;100.00;101141.84;5112744;28;19927;-68
2021/01/11 08:51:44;;;;;;;;;;;;;;;-0.53;100.00;101139.09;5112796;28;19924;-67
2021/01/11 08:54:09;;;;;;;;;;;;;;;-0.55;100.00;101143.63;5112649;28;19924;-67
2021/01/11 08:56:36;;;;;;;;;;;;;;;-0.56;100.00;101139.19;5111280;28;19924;-67
2021/01/11 08:59:02;;;;;;;;;;;;;;;-0.55;100.00;101140.06;5112696;28;19932;-67
2021/01/11 09:01:34;;;;;;;;;;;;;;;-0.53;100.00;101139.09;5112536;28;20372;-67
2021/01/11 09:03:59;;;;;;;;;;;;;;;-0.48;100.00;101143.41;5112530;28;19924;-67
2021/01/11 09:06:34;;;;;;;;;;;;;;;-0.49;100.00;101139.00;5112173;28;20353;-67
2021/01/11 09:09:03;;;;;;;;;;;;;;;-0.47;100.00;101148.72;5112369;28;19928;-67
2021/01/11 09:11:29;;;;;;;;;;;;;;;-0.44;100.00;101145.97;5099453;28;20367;-68
2021/01/11 09:14:04;;;;;;;;;;;;;;;-0.40;100.00;101144.97;5109737;28;19931;-68
2021/01/11 09:16:31;;;;;;;;;;;;;;;-0.35;100.00;101150.16;5106027;28;20022;-68
2021/01/11 09:19:03;;;;;;;;;;;;;;;-0.40;100.00;101139.63;5106203;28;19978;-68
2021/01/11 09:21:29;;;;;;;;;;;;;;;-0.38;100.00;101151.13;5101116;28;20031;-68
2021/01/11 09:23:55;;;;;;;;;;;;;;;-0.39;100.00;101151.16;5091504;28;19924;-67
2021/01/11 09:26:21;;;;;;;;;;;;;;;-0.39;100.00;101144.06;5097024;28;19931;-67
2021/01/11 09:28:46;;;;;;;;;;;;;;;-0.35;100.00;101147.47;5098961;28;19924;-67
2021/01/11 09:31:13;;;;;;;;;;;;;;;-0.33;100.00;101143.00;5120720;27;19931;-67
2021/01/11 09:33:39;;;;;;;;;;;;;;;-0.35;100.00;101143.03;5102061;27;20011;-67
2021/01/11 09:36:05;;;;;;;;;;;;;;;-0.32;100.00;101150.09;5108931;27;19923;-67
2021/01/11 09:38:31;;;;;;;;;;;;;;;-0.33;100.00;101143.00;5104145;28;19928;-67
2021/01/11 09:40:56;;;;;;;;;;;;;;;-0.35;100.00;101155.47;5101953;27;19935;-67
2021/01/11 09:43:22;;;;;;;;;;;;;;;-0.29;100.00;101144.66;5109973;27;20039;-67
2021/01/11 09:45:48;;;;;;;;;;;;;;;-0.24;100.00;101144.50;5099200;28;20416;-67
2021/01/11 09:48:15;;;;;;;;;;;;;;;-0.23;100.00;101141.81;5094761;28;19932;-68
2021/01/11 09:50:40;;;;;;;;;;;;;;;-0.20;100.00;101136.38;5105682;27;19931;-68
2021/01/11 09:53:07;;;;;;;;;;;;;;;-0.19;100.00;101138.13;5115529;27;19932;-68
2021/01/11 09:55:33;;;;;;;;;;;;;;;-0.15;100.00;101138.88;5100582;28;20049;-68
2021/01/11 09:58:01;;;;;;;;;;;;;;;-0.16;100.00;101137.16;5094974;28;19937;-68
2021/01/11 10:00:28;;;;;;;;;;;;;;;-0.14;100.00;101129.09;5100712;28;19985;-68
2021/01/11 10:02:53;;;;;;;;;;;;;;;-0.13;100.00;101130.81;5103138;28;19963;-68
2021/01/11 10:05:20;;;;;;;;;;;;;;;-0.09;100.00;101119.16;5100169;28;19943;-68
2021/01/11 10:07:46;;;;;;;;;;;;;;;-0.07;100.00;101117.31;5097390;28;19962;-68
2021/01/11 10:10:12;;;;;;;;;;;;;;;-0.02;100.00;101118.06;5104186;28;19981;-68
2021/01/11 10:12:38;;;;;;;;;;;;;;;0.01;100.00;101119.75;5106072;28;20018;-69
2021/01/11 10:15:05;;;;;;;;;;;;;;;0.03;100.00;101120.56;5111454;28;19934;-68
2021/01/11 10:17:31;;;;;;;;;;;;;;;0.05;100.00;101110.72;5107468;28;20007;-68
2021/01/11 10:19:57;;;;;;;;;;;;;;;0.07;100.00;101107.09;5109040;28;19924;-68
2021/01/11 10:22:23;;;;;;;;;;;;;;;0.06;100.00;101105.31;5100057;28;20502;-68
2021/01/11 10:24:50;;;;;;;;;;;;;;;0.06;100.00;101109.81;5108344;28;19949;-68
2021/01/11 10:27:16;;;;;;;;;;;;;;;0.05;100.00;101098.22;5109056;28;19931;-68
2021/01/11 10:29:42;;;;;;;;;;;;;;;0.05;100.00;101097.38;5096487;28;19963;-68
2021/01/11 10:32:07;;;;;;;;;;;;;;;0.05;100.00;101092.91;5104861;28;19931;-68
2021/01/11 10:34:33;;;;;;;;;;;;;;;0.03;100.00;101092.09;5115563;28;19924;-68
2021/01/11 10:36:59;;;;;;;;;;;;;;;0.05;100.00;101084.88;5106461;28;19924;-68
2021/01/11 10:39:26;;;;;;;;;;;;;;;0.05;100.00;101092.03;5100759;28;19931;-67
2021/01/11 10:41:52;;;;;;;;;;;;;;;0.05;100.00;101084.88;5115360;28;20362;-68
2021/01/11 10:44:18;;;;;;;;;;;;;;;0.06;100.00;101086.66;5114625;28;19963;-68
2021/01/11 10:46:44;;;;;;;;;;;;;;;0.06;100.00;101078.63;5115156;28;19935;-68
2021/01/11 10:49:10;;;;;;;;;;;;;;;0.08;100.00;101075.91;5099154;28;19956;-68
2021/01/11 10:51:35;;;;;;;;;;;;;;;0.09;100.00;101080.34;5109701;28;19924;-68
2021/01/11 10:54:03;;;;;;;;;;;;;;;0.06;100.00;101067.09;5100872;28;20087;-68
2021/01/11 10:56:29;;;;;;;;;;;;;;;0.06;100.00;101067.09;5107392;28;20030;-68
2021/01/11 10:58:55;;;;;;;;;;;;;;;0.05;100.00;101070.69;5106796;28;20415;-68
2021/01/11 11:01:21;;;;;;;;;;;;;;;0.01;100.00;101069.03;5094502;28;19928;-67
2021/01/11 11:03:47;;;;;;;;;;;;;;;0.02;100.00;101055.63;5099421;28;19999;-68
2021/01/11 11:06:13;;;;;;;;;;;;;;;-0.02;100.00;101045.97;5094292;28;19924;-66
2021/01/11 11:08:39;;;;;;;;;;;;;;;-0.07;100.00;101050.59;5094628;28;19931;-66
2021/01/11 11:11:05;;;;;;;;;;;;;;;-0.12;100.00;101047.19;5096342;28;19928;-67
2021/01/11 11:13:32;;;;;;;;;;;;;;;-0.15;100.00;101042.81;5114452;28;19928;-66
2021/01/11 11:15:58;;;;;;;;;;;;;;;-0.20;100.00;101056.31;5106956;28;20357;-67
2021/01/11 11:18:24;;;;;;;;;;;;;;;-0.22;100.00;101042.13;5097321;28;19927;-67
2021/01/11 11:20:49;;;;;;;;;;;;;;;-0.19;100.00;101039.38;5107396;28;19924;-67
2021/01/11 11:23:16;;;;;;;;;;;;;;;-0.18;100.00;101043.78;5094102;28;20397;-67
2021/01/11 11:25:42;;;;;;;;;;;;;;;-0.15;100.00;101041.94;5098616;28;20417;-67
2021/01/11 11:28:08;;;;;;;;;;;;;;;-0.14;100.00;101033.03;5104954;28;19923;-67
2021/01/11 11:30:35;;;;;;;;;;;;;;;-0.18;100.00;101033.09;5114271;28;19924;-66
2021/01/11 11:33:00;;;;;;;;;;;;;;;-0.19;100.00;101028.72;5100418;28;20548;-66
2021/01/11 11:35:26;;;;;;;;;;;;;;;-0.17;100.00;101026.84;5112299;28;19931;-67
2021/01/11 11:37:52;;;;;;;;;;;;;;;-0.15;100.00;101026.81;5098069;28;19931;-67
2021/01/11 11:40:19;;;;;;;;;;;;;;;-0.13;100.00;101022.31;5093647;28;19928;-67
2021/01/11 11:42:45;;;;;;;;;;;;;;;-0.15;100.00;101010.78;5095972;28;19928;-66
2021/01/11 11:45:11;;;;;;;;;;;;;;;-0.17;100.00;101008.19;5103822;28;19947;-67
2021/01/11 11:47:38;;;;;;;;;;;;;;;-0.14;100.00;101009.00;5101811;28;19978;-67
2021/01/11 11:50:05;;;;;;;;;;;;;;;-0.07;100.00;101006.06;5113801;28;20337;-67
2021/01/11 11:52:31;;;;;;;;;;;;;;;-0.02;100.00;101004.13;5109592;28;20351;-67
2021/01/11 11:54:57;;;;;;;;;;;;;;;-0.04;100.00;100998.00;5102973;28;19924;-67
2021/01/11 11:57:23;;;;;;;;;;;;;;;-0.03;100.00;100994.41;5110389;28;19963;-66
2021/01/11 11:59:49;;;;;;;;;;;;;;;0.03;100.00;100982.63;5093462;28;19928;-66
2021/01/11 12:02:15;;;;;;;;;;;;;;;-0.01;100.00;100981.84;5105296;28;19950;-66
2021/01/11 12:04:41;;;;;;;;;;;;;;;-0.02;100.00;100966.75;5101727;28;19923;-66
2021/01/11 12:07:07;;;;;;;;;;;;;;;-0.02;100.00;100971.25;5101910;28;20377;-67
2021/01/11 12:09:33;;;;;;;;;;;;;;;-0.01;100.00;100964.97;5098291;28;19924;-67
2021/01/11 12:12:00;;;;;;;;;;;;;;;0.03;100.00;100969.28;5094048;28;19963;-67
2021/01/11 12:14:25;;;;;;;;;;;;;;;0.04;100.00;100963.03;5091252;28;19924;-67
2021/01/11 12:16:51;;;;;;;;;;;;;;;0.05;100.00;100959.41;5104164;28;19923;-67
2021/01/11 12:19:17;;;;;;;;;;;;;;;0.03;100.00;100955.94;5110902;28;19924;-67
2021/01/11 12:21:45;;;;;;;;;;;;;;;0.08;100.00;100953.09;5111603;28;20027;-68
2021/01/11 12:24:11;;;;;;;;;;;;;;;0.05;100.00;100956.75;5111024;28;19955;-67
2021/01/11 12:26:40;;;;;;;;;;;;;;;0.03;100.00;100955.94;5096706;28;19924;-68
2021/01/11 12:29:06;;;;;;;;;;;;;;;0.01;100.00;100949.78;5092740;28;19959;-68